createdAt,value
2019-04-28T00:01:17.731Z,5.27
2019-04-28T00:03:46.910Z,4.97
2019-04-28T00:06:16.096Z,4.87
2019-04-28T00:08:45.254Z,5.13
2019-04-28T00:11:14.500Z,4.30
2019-04-28T00:13:43.682Z,5.53
2019-04-28T00:16:12.864Z,4.07
2019-04-28T00:18:42.047Z,3.53
2019-04-28T00:21:17.607Z,4.17
2019-04-28T00:24:54.861Z,5.07
2019-04-28T00:27:24.086Z,6.00
2019-04-28T00:29:53.305Z,5.80
2019-04-28T00:32:22.515Z,5.30
2019-04-28T00:34:51.702Z,4.23
2019-04-28T00:37:25.793Z,5.50
2019-04-28T00:39:54.988Z,5.17
2019-04-28T00:42:24.148Z,5.40
2019-04-28T00:44:53.311Z,5.40
2019-04-28T00:47:22.504Z,5.13
2019-04-28T00:49:52.054Z,5.83
2019-04-28T00:52:22.200Z,6.73
2019-04-28T00:54:52.345Z,11.90
2019-04-28T00:57:21.062Z,6.90
2019-04-28T00:59:56.826Z,5.63
2019-04-28T01:02:25.254Z,6.10
2019-04-28T01:04:54.462Z,6.97
2019-04-28T01:07:23.677Z,6.43
2019-04-28T01:09:52.870Z,5.53
2019-04-28T01:12:22.089Z,8.13
2019-04-28T01:14:52.893Z,6.53
2019-04-28T01:17:25.701Z,7.80
2019-04-28T01:19:54.914Z,7.53
2019-04-28T01:22:24.107Z,6.60
2019-04-28T01:24:53.304Z,8.53
2019-04-28T01:27:27.784Z,8.13
2019-04-28T01:30:07.587Z,7.73
2019-04-28T01:32:31.325Z,6.10
2019-04-28T01:35:00.523Z,5.53
2019-04-28T01:37:29.721Z,4.63
2019-04-28T01:39:59.661Z,5.27
2019-04-28T01:42:30.099Z,6.03
2019-04-28T01:44:57.313Z,8.10
2019-04-28T01:47:26.494Z,4.60
2019-04-28T01:49:55.676Z,6.60
2019-04-28T01:52:24.853Z,5.03
2019-04-28T01:54:54.040Z,6.03
2019-04-28T01:57:23.210Z,7.20
2019-04-28T01:59:52.404Z,6.83
2019-04-28T02:02:21.579Z,5.07
2019-04-28T02:04:50.800Z,8.13
2019-04-28T02:07:20.596Z,5.10
2019-04-28T02:09:49.547Z,5.53
2019-04-28T02:12:20.259Z,5.17
2019-04-28T02:14:47.638Z,6.10
2019-04-28T02:17:16.951Z,6.30
2019-04-28T02:19:46.193Z,5.87
2019-04-28T02:22:20.979Z,5.43
2019-04-28T02:24:51.300Z,6.90
2019-04-28T02:27:20.490Z,8.03
2019-04-28T02:29:49.984Z,4.97
2019-04-28T02:32:23.906Z,8.87
2019-04-28T02:34:50.642Z,7.07
2019-04-28T02:37:20.559Z,5.10
2019-04-28T02:39:49.872Z,5.27
2019-04-28T02:42:16.965Z,4.30
2019-04-28T02:44:46.136Z,4.10
2019-04-28T02:47:15.327Z,5.40
2019-04-28T02:49:50.393Z,3.97
2019-04-28T02:52:22.397Z,5.47
2019-04-28T02:54:51.561Z,5.60
2019-04-28T02:57:21.073Z,5.03
2019-04-28T02:59:50.824Z,5.77
2019-04-28T03:02:20.803Z,4.57
2019-04-28T03:04:50.683Z,3.83
2019-04-28T03:07:17.755Z,6.80
2019-04-28T03:09:47.002Z,4.47
2019-04-28T03:12:16.175Z,6.07
2019-04-28T03:14:45.367Z,4.17
2019-04-28T03:17:14.599Z,5.57
2019-04-28T03:19:43.796Z,4.23
2019-04-28T03:22:13.023Z,4.33
2019-04-28T03:24:42.466Z,3.73
2019-04-28T03:27:20.480Z,4.10
2019-04-28T03:29:52.566Z,4.50
2019-04-28T03:32:43.096Z,4.27
2019-04-28T03:34:56.289Z,3.83
2019-04-28T03:37:25.515Z,5.40
2019-04-28T03:39:54.694Z,3.27
2019-04-28T03:42:23.870Z,6.33
2019-04-28T03:44:53.131Z,5.20
2019-04-28T03:47:22.305Z,3.70
2019-04-28T03:49:51.623Z,3.77
2019-04-28T03:52:21.555Z,4.90
2019-04-28T03:54:50.831Z,4.93
2019-04-28T03:57:21.544Z,5.40
2019-04-28T03:59:50.886Z,4.77
2019-04-28T04:02:17.569Z,4.43
2019-04-28T04:04:46.745Z,4.47
2019-04-28T04:07:17.214Z,3.53
2019-04-28T04:09:51.489Z,4.93
2019-04-28T04:12:31.370Z,5.10
2019-04-28T04:15:04.896Z,4.30
2019-04-28T04:17:38.636Z,4.13
2019-04-28T04:20:07.276Z,4.73
2019-04-28T04:22:36.473Z,5.03
2019-04-28T04:25:08.965Z,6.30
2019-04-28T04:27:36.080Z,8.43
2019-04-28T04:30:05.398Z,8.23
2019-04-28T04:32:34.554Z,8.50
2019-04-28T04:35:04.106Z,8.63
2019-04-28T04:37:33.285Z,9.10
2019-04-28T04:40:02.500Z,8.47
2019-04-28T04:42:31.685Z,9.23
2019-04-28T04:45:00.862Z,10.83
2019-04-28T04:47:32.932Z,8.53
2019-04-28T04:50:00.576Z,9.30
2019-04-28T04:52:30.425Z,7.90
2019-04-28T04:55:01.055Z,8.70
2019-04-28T04:57:30.696Z,11.30
2019-04-28T05:00:00.153Z,9.87
2019-04-28T05:02:51.148Z,8.07
2019-04-28T05:05:15.654Z,8.70
2019-04-28T05:07:44.817Z,8.53
2019-04-28T05:10:14.005Z,7.57
2019-04-28T05:12:44.644Z,8.87
2019-04-28T05:15:13.829Z,8.17
2019-04-28T05:17:43.009Z,7.20
2019-04-28T05:20:12.226Z,9.13
2019-04-28T05:22:50.585Z,8.00
2019-04-28T05:25:29.258Z,6.90
2019-04-28T05:27:54.517Z,6.77
2019-04-28T05:30:23.341Z,6.53
2019-04-28T05:32:56.290Z,6.73
2019-04-28T05:35:25.043Z,6.83
2019-04-28T05:37:50.993Z,5.57
2019-04-28T05:40:20.622Z,5.00
2019-04-28T05:42:55.001Z,5.00
2019-04-28T05:45:25.191Z,5.23
2019-04-28T05:47:54.560Z,4.90
2019-04-28T05:50:29.651Z,6.00
2019-04-28T05:53:15.996Z,5.63
2019-04-28T05:55:50.155Z,4.97
2019-04-28T05:58:27.304Z,3.97
2019-04-28T06:01:00.834Z,3.77
2019-04-28T06:03:34.476Z,3.80
2019-04-28T06:06:03.673Z,4.53
2019-04-28T06:08:37.477Z,4.47
2019-04-28T06:11:12.189Z,3.60
2019-04-28T06:13:41.393Z,5.57
2019-04-28T06:16:10.588Z,4.33
2019-04-28T06:18:42.104Z,3.70
2019-04-28T06:21:08.950Z,3.73
2019-04-28T06:23:38.126Z,4.30
2019-04-28T06:27:36.648Z,4.70
2019-04-28T06:30:05.884Z,3.53
2019-04-28T06:32:35.087Z,5.13
2019-04-28T06:35:04.356Z,4.30
2019-04-28T06:37:33.562Z,4.57
2019-04-28T06:40:02.805Z,3.53
2019-04-28T06:42:31.984Z,3.07
2019-04-28T06:45:01.158Z,3.80
2019-04-28T06:47:30.345Z,5.37
2019-04-28T06:49:59.554Z,5.50
2019-04-28T06:52:30.135Z,3.53
2019-04-28T06:55:00.154Z,4.37
2019-04-28T06:57:29.349Z,3.93
2019-04-28T06:59:58.522Z,3.10
2019-04-28T07:02:27.762Z,5.00
2019-04-28T07:05:02.256Z,4.23
2019-04-28T07:07:26.173Z,3.30
2019-04-28T07:09:57.891Z,4.93
2019-04-28T07:12:28.300Z,5.30
2019-04-28T07:14:57.526Z,3.63
2019-04-28T07:17:26.721Z,6.10
2019-04-28T07:20:00.290Z,5.03
2019-04-28T07:22:30.333Z,7.13
2019-04-28T07:25:03.301Z,3.93
2019-04-28T07:27:32.560Z,4.23
2019-04-28T07:30:01.732Z,3.73
2019-04-28T07:32:30.922Z,4.13
2019-04-28T07:35:00.077Z,3.93
2019-04-28T07:37:30.522Z,4.70
2019-04-28T07:39:59.713Z,6.80
2019-04-28T07:42:28.901Z,2.77
2019-04-28T07:44:58.114Z,3.23
2019-04-28T07:47:27.320Z,4.23
2019-04-28T07:49:56.516Z,5.17
2019-04-28T07:52:33.896Z,6.90
2019-04-28T07:55:05.557Z,3.97
2019-04-28T07:57:34.809Z,3.03
2019-04-28T08:00:04.210Z,4.07
2019-04-28T08:02:33.357Z,3.67
2019-04-28T08:05:06.250Z,3.60
2019-04-28T08:07:35.425Z,4.13
2019-04-28T08:10:04.616Z,4.40
2019-04-28T08:12:33.817Z,4.67
2019-04-28T08:15:05.462Z,3.50
2019-04-28T08:17:34.685Z,4.30
2019-04-28T08:20:05.682Z,4.30
2019-04-28T08:22:33.295Z,6.77
2019-04-28T08:25:03.727Z,4.80
2019-04-28T08:27:32.897Z,4.63
2019-04-28T08:30:02.105Z,5.83
2019-04-28T08:32:35.532Z,4.33
2019-04-28T08:35:04.794Z,4.40
2019-04-28T08:37:34.059Z,3.80
2019-04-28T08:40:03.306Z,4.50
2019-04-28T08:42:33.817Z,4.83
2019-04-28T08:45:03.021Z,6.27
2019-04-28T08:47:32.190Z,4.27
2019-04-28T08:50:01.479Z,4.77
2019-04-28T08:52:30.712Z,5.07
2019-04-28T08:54:59.885Z,5.50
2019-04-28T08:57:30.355Z,4.80
2019-04-28T09:00:00.756Z,5.00
2019-04-28T09:02:29.918Z,5.30
2019-04-28T09:05:00.384Z,5.77
2019-04-28T09:07:29.565Z,4.60
2019-04-28T09:09:58.781Z,5.95
2019-04-28T09:12:29.203Z,5.60
2019-04-28T09:15:00.826Z,6.10
2019-04-28T09:17:31.286Z,4.77
2019-04-28T09:20:01.715Z,5.53
2019-04-28T09:22:30.887Z,5.10
2019-04-28T09:25:01.335Z,4.23
2019-04-28T09:27:30.510Z,4.33
2019-04-28T09:29:59.744Z,5.63
2019-04-28T09:32:28.934Z,4.83
2019-04-28T09:34:58.138Z,5.00
2019-04-28T09:37:29.773Z,6.13
2019-04-28T09:40:01.792Z,4.13
2019-04-28T09:42:36.513Z,5.83
2019-04-28T09:45:07.281Z,6.20
2019-04-28T09:47:36.472Z,4.50
2019-04-28T09:50:05.712Z,4.67
2019-04-28T09:52:34.893Z,5.63
2019-04-28T09:55:04.120Z,5.00
2019-04-28T09:57:34.633Z,5.67
2019-04-28T10:00:03.873Z,6.10
2019-04-28T10:02:34.281Z,6.33
2019-04-28T10:05:03.838Z,6.13
2019-04-28T10:07:33.025Z,5.87
2019-04-28T10:10:05.833Z,4.60
2019-04-28T10:12:35.009Z,5.27
2019-04-28T10:15:05.744Z,5.93
2019-04-28T10:17:37.287Z,4.83
2019-04-28T10:20:06.497Z,4.30
2019-04-28T10:22:35.717Z,5.00
2019-04-28T10:25:06.644Z,4.13
2019-04-28T10:27:35.826Z,5.43
2019-04-28T10:30:06.422Z,4.17
2019-04-28T10:32:35.599Z,5.40
2019-04-28T10:35:06.115Z,5.27
2019-04-28T10:37:35.302Z,5.10
2019-04-28T10:40:08.700Z,4.10
2019-04-28T10:42:37.876Z,4.33
2019-04-28T10:45:07.333Z,8.23
2019-04-28T10:47:36.530Z,5.40
2019-04-28T10:50:08.165Z,5.37
2019-04-28T10:52:37.353Z,5.90
2019-04-28T10:55:07.391Z,6.47
2019-04-28T10:57:36.576Z,6.23
2019-04-28T11:00:07.089Z,5.47
2019-04-28T11:02:37.468Z,4.17
2019-04-28T11:05:10.986Z,7.73
2019-04-28T11:07:40.173Z,4.83
2019-04-28T11:10:13.476Z,4.20
2019-04-28T11:12:42.704Z,5.73
2019-04-28T11:15:17.169Z,4.27
2019-04-28T11:17:46.345Z,5.17
2019-04-28T11:20:15.537Z,5.13
2019-04-28T11:22:47.184Z,4.23
2019-04-28T11:25:16.397Z,4.33
2019-04-28T11:27:46.834Z,5.60
2019-04-28T11:30:16.523Z,5.67
2019-04-28T11:32:51.281Z,5.60
2019-04-28T11:35:24.880Z,5.53
2019-04-28T11:37:54.105Z,5.53
2019-04-28T11:40:25.789Z,5.20
2019-04-28T11:42:54.989Z,6.17
2019-04-28T11:45:24.212Z,4.70
2019-04-28T11:47:54.714Z,4.37
2019-04-28T11:50:23.921Z,5.27
2019-04-28T11:52:53.113Z,4.67
2019-04-28T11:55:25.897Z,5.13
2019-04-28T11:57:55.075Z,3.23
2019-04-28T12:00:27.423Z,3.07
2019-04-28T12:02:56.617Z,2.80
2019-04-28T12:05:34.624Z,3.63
2019-04-28T12:08:00.045Z,3.83
2019-04-28T12:10:32.227Z,3.63
2019-04-28T12:13:10.255Z,3.27
2019-04-28T12:15:46.204Z,4.30
2019-04-28T12:18:53.494Z,3.43
2019-04-28T12:21:22.971Z,3.77
2019-04-28T12:23:52.154Z,4.83
2019-04-28T12:26:21.339Z,4.40
2019-04-28T12:28:50.770Z,3.37
2019-04-28T12:31:21.262Z,3.30
2019-04-28T12:33:50.529Z,4.20
2019-04-28T12:36:20.999Z,2.83
2019-04-28T12:38:50.205Z,3.67
2019-04-28T12:41:19.406Z,3.10
2019-04-28T12:43:48.572Z,3.83
2019-04-28T12:46:17.749Z,4.40
2019-04-28T12:48:46.935Z,4.83
2019-04-28T12:51:16.121Z,4.93
2019-04-28T12:53:46.520Z,4.20
2019-04-28T12:56:16.894Z,3.57
2019-04-28T12:58:46.053Z,2.63
2019-04-28T13:01:19.566Z,2.00
2019-04-28T13:03:58.010Z,2.70
2019-04-28T13:06:28.566Z,3.30
2019-04-28T13:08:57.733Z,2.77
2019-04-28T13:11:27.636Z,3.33
2019-04-28T13:13:58.058Z,4.73
2019-04-28T13:16:27.315Z,4.23
2019-04-28T13:18:56.528Z,3.77
2019-04-28T13:21:25.698Z,6.03
2019-04-28T13:23:57.009Z,3.73
2019-04-28T13:26:26.166Z,5.03
2019-04-28T13:28:55.355Z,4.67
2019-04-28T13:31:24.633Z,5.10
2019-04-28T13:33:56.608Z,4.03
2019-04-28T13:36:23.922Z,3.90
2019-04-28T13:38:53.270Z,6.27
2019-04-28T13:41:23.658Z,6.20
2019-04-28T13:43:53.156Z,5.77
2019-04-28T13:46:22.370Z,5.37
2019-04-28T13:48:51.542Z,4.60
2019-04-28T13:51:21.965Z,4.93
2019-04-28T13:53:51.134Z,5.50
2019-04-28T13:56:20.309Z,4.10
2019-04-28T13:58:55.505Z,5.17
2019-04-28T14:01:50.344Z,5.77
2019-04-28T14:04:26.399Z,4.77
2019-04-28T14:07:04.893Z,5.80
2019-04-28T14:09:34.118Z,5.73
2019-04-28T14:12:03.331Z,5.00
2019-04-28T14:14:32.568Z,5.70
2019-04-28T14:17:01.792Z,5.00
2019-04-28T14:19:31.265Z,5.97
2019-04-28T14:22:00.463Z,6.10
2019-04-28T14:24:29.639Z,5.30
2019-04-28T14:27:01.366Z,4.97
2019-04-28T14:29:30.536Z,5.20
2019-04-28T14:31:59.696Z,6.73
2019-04-28T14:34:30.148Z,6.13
2019-04-28T14:37:00.564Z,6.20
2019-04-28T14:39:32.317Z,4.77
2019-04-28T14:42:01.555Z,5.27
2019-04-28T14:44:30.786Z,6.40
2019-04-28T14:47:01.293Z,4.80
2019-04-28T14:49:30.601Z,5.63
2019-04-28T14:51:59.693Z,5.23
2019-04-28T14:54:28.889Z,4.50
2019-04-28T14:56:59.389Z,5.10
2019-04-28T14:59:28.633Z,5.30
2019-04-28T15:02:31.578Z,5.80
2019-04-28T15:05:06.184Z,9.47
2019-04-28T15:07:42.874Z,6.40
2019-04-28T15:10:16.545Z,6.53
2019-04-28T15:12:45.886Z,5.37
2019-04-28T15:15:15.369Z,5.87
2019-04-28T15:17:44.717Z,6.73
2019-04-28T15:20:15.296Z,9.33
2019-04-28T15:22:44.461Z,7.83
2019-04-28T15:25:16.166Z,6.30
2019-04-28T15:27:45.383Z,7.30
2019-04-28T15:30:14.753Z,7.87
2019-04-28T15:32:44.046Z,8.07
2019-04-28T15:35:13.265Z,10.13
2019-04-28T15:37:42.487Z,10.73
2019-04-28T15:40:13.402Z,10.27
2019-04-28T15:42:43.557Z,9.03
2019-04-28T15:45:12.867Z,8.67
2019-04-28T15:47:42.097Z,9.97
2019-04-28T15:50:11.303Z,9.70
2019-04-28T15:52:40.549Z,10.40
2019-04-28T15:55:10.153Z,10.63
2019-04-28T15:57:39.397Z,8.77
2019-04-28T16:00:09.262Z,9.37
2019-04-28T16:02:38.437Z,10.40
2019-04-28T16:05:08.840Z,10.20
2019-04-28T16:07:39.005Z,10.03
2019-04-28T16:10:08.233Z,10.97
2019-04-28T16:12:37.498Z,10.93
2019-04-28T16:15:07.521Z,12.03
2019-04-28T16:17:36.058Z,10.73
2019-04-28T16:20:06.586Z,11.40
2019-04-28T16:22:36.679Z,12.27
2019-04-28T16:25:07.545Z,10.20
2019-04-28T16:27:37.310Z,11.70
2019-04-28T16:30:10.199Z,10.87
2019-04-28T16:32:39.498Z,11.80
2019-04-28T16:35:09.179Z,11.67
2019-04-28T16:37:39.707Z,10.77
2019-04-28T16:40:09.603Z,10.53
2019-04-28T16:42:39.826Z,9.97
2019-04-28T16:45:09.668Z,10.63
2019-04-28T16:47:38.914Z,10.70
2019-04-28T16:50:08.203Z,9.80
2019-04-28T16:52:37.454Z,8.70
2019-04-28T16:55:17.045Z,9.73
2019-04-28T16:58:23.882Z,9.87
2019-04-28T17:00:59.433Z,8.60
2019-04-28T17:03:28.625Z,8.30
2019-04-28T17:05:57.825Z,9.60
2019-04-28T17:08:27.128Z,10.73
2019-04-28T17:10:57.568Z,10.77
2019-04-28T17:13:26.882Z,14.73
2019-04-28T17:15:56.637Z,9.87
2019-04-28T17:18:25.961Z,11.10
2019-04-28T17:20:55.285Z,9.60
2019-04-28T17:23:25.785Z,10.63
2019-04-28T17:25:55.001Z,9.93
2019-04-28T17:28:24.253Z,11.90
2019-04-28T17:30:53.529Z,12.50
2019-04-28T17:33:23.473Z,14.37
2019-04-28T17:35:52.879Z,15.73
2019-04-28T17:38:22.159Z,14.87
2019-04-28T17:40:51.374Z,12.63
2019-04-28T17:43:21.828Z,12.47
2019-04-28T17:45:51.002Z,14.30
2019-04-28T17:48:23.650Z,17.73
2019-04-28T17:50:52.832Z,18.53
2019-04-28T17:53:22.037Z,17.10
2019-04-28T17:55:52.486Z,20.67
2019-04-28T17:58:22.927Z,16.23
2019-04-28T18:00:59.066Z,16.20
2019-04-28T18:03:33.601Z,20.67
2019-04-28T18:06:17.653Z,18.33
2019-04-28T18:08:38.130Z,16.00
2019-04-28T18:11:07.329Z,17.47
2019-04-28T18:13:37.759Z,20.37
2019-04-28T18:16:13.881Z,21.57
2019-04-28T18:18:47.229Z,22.20
2019-04-28T18:21:16.454Z,21.07
2019-04-28T18:23:45.677Z,20.33
2019-04-28T18:26:14.850Z,21.93
2019-04-28T18:28:44.105Z,21.87
2019-04-28T18:32:25.416Z,23.40
2019-04-28T18:34:59.121Z,26.57
2019-04-28T18:37:59.060Z,25.00
2019-04-28T18:40:35.582Z,20.83
2019-04-28T18:43:10.043Z,23.70
2019-04-28T18:45:39.507Z,25.93
2019-04-28T18:48:08.745Z,29.00
2019-04-28T18:50:37.957Z,29.07
2019-04-28T18:53:10.088Z,27.70
2019-04-28T18:55:39.310Z,30.00
2019-04-28T18:58:08.477Z,26.80
2019-04-28T19:00:38.579Z,29.70
2019-04-28T19:03:07.780Z,32.40
2019-04-28T19:05:39.871Z,28.73
2019-04-28T19:08:18.805Z,27.77
2019-04-28T19:10:57.135Z,29.03
2019-04-28T19:13:29.066Z,28.43
2019-04-28T19:16:05.668Z,26.37
2019-04-28T19:18:36.799Z,33.63
2019-04-28T19:21:06.051Z,27.87
2019-04-28T19:23:36.730Z,32.67
2019-04-28T19:26:05.933Z,32.27
2019-04-28T19:28:35.410Z,33.73
2019-04-28T19:31:04.662Z,33.20
2019-04-28T19:33:33.872Z,32.73
2019-04-28T19:36:03.070Z,35.97
2019-04-28T19:38:32.282Z,32.67
2019-04-28T19:41:02.705Z,28.53
2019-04-28T19:43:32.113Z,27.70
2019-04-28T19:46:04.756Z,26.43
2019-04-28T19:48:35.709Z,31.53
2019-04-28T19:51:04.954Z,28.43
2019-04-28T19:53:36.504Z,36.13
2019-04-28T19:56:10.845Z,34.00
2019-04-28T19:58:43.809Z,29.03
2019-04-28T20:01:18.352Z,30.57
2019-04-28T20:03:47.558Z,29.37
2019-04-28T20:06:16.842Z,25.53
2019-04-28T20:08:46.081Z,28.77
2019-04-28T20:11:15.600Z,32.27
2019-04-28T20:13:44.813Z,27.60
2019-04-28T20:16:14.004Z,33.70
2019-04-28T20:18:44.499Z,28.00
2019-04-28T20:21:13.766Z,29.13
2019-04-28T20:23:44.109Z,28.87
2019-04-28T20:26:14.590Z,37.30
2019-04-28T20:28:43.810Z,30.43
2019-04-28T20:31:16.829Z,35.07
2019-04-28T20:33:46.076Z,32.80
2019-04-28T20:36:19.301Z,33.97
2019-04-28T20:38:49.042Z,33.77
2019-04-28T20:41:21.205Z,36.70
2019-04-28T20:43:50.416Z,40.50
2019-04-28T20:46:20.459Z,38.73
2019-04-28T20:48:51.841Z,39.47
2019-04-28T20:51:21.022Z,36.23
2019-04-28T20:53:50.259Z,37.87
2019-04-28T20:56:19.491Z,42.83
2019-04-28T20:58:48.746Z,41.07
2019-04-28T21:01:20.564Z,42.50
2019-04-28T21:03:49.789Z,44.53
2019-04-28T21:06:20.842Z,45.87
2019-04-28T21:08:50.053Z,42.37
2019-04-28T21:11:20.534Z,44.30
2019-04-28T21:13:49.705Z,43.30
2019-04-28T21:16:19.118Z,42.57
2019-04-28T21:18:48.365Z,43.17
2019-04-28T21:21:18.848Z,39.40
2019-04-28T21:23:49.742Z,33.27
2019-04-28T21:26:18.998Z,37.37
2019-04-28T21:28:49.588Z,36.23
2019-04-28T21:31:18.839Z,33.20
2019-04-28T21:33:48.214Z,32.83
2019-04-28T21:36:17.406Z,34.63
2019-04-28T21:38:47.208Z,36.67
2019-04-28T21:41:16.380Z,36.17
2019-04-28T21:43:52.722Z,34.33
2019-04-28T21:46:28.272Z,33.50
2019-04-28T21:49:03.333Z,32.47
2019-04-28T21:51:33.961Z,33.90
2019-04-28T21:54:04.289Z,32.37
2019-04-28T21:56:33.516Z,38.30
2019-04-28T21:59:02.693Z,30.37
2019-04-28T22:01:32.648Z,31.27
2019-04-28T22:04:01.901Z,28.07
2019-04-28T22:06:31.065Z,30.83
2019-04-28T22:09:00.272Z,32.00
2019-04-28T22:11:29.458Z,30.90
2019-04-28T22:13:58.641Z,29.90
2019-04-28T22:16:27.857Z,30.63
2019-04-28T22:18:57.028Z,28.30
2019-04-28T22:21:26.334Z,33.60
2019-04-28T22:24:14.361Z,29.63
2019-04-28T22:26:46.116Z,33.30
2019-04-28T22:29:15.322Z,27.37
2019-04-28T22:31:44.525Z,29.13
2019-04-28T22:34:13.952Z,31.90
2019-04-28T22:36:43.800Z,31.37
2019-04-28T22:39:12.996Z,30.57
2019-04-28T22:41:42.175Z,32.30
2019-04-28T22:44:12.652Z,28.17
2019-04-28T22:46:41.965Z,31.93
2019-04-28T22:49:11.189Z,32.10
2019-04-28T22:51:40.420Z,33.77
2019-04-28T22:54:13.785Z,30.90
2019-04-28T22:56:44.466Z,31.73
2019-04-28T22:59:17.026Z,31.10
2019-04-28T23:01:50.046Z,30.37
2019-04-28T23:04:26.532Z,32.07
2019-04-28T23:06:55.746Z,32.00
2019-04-28T23:09:24.933Z,31.07
2019-04-28T23:11:54.123Z,30.60
2019-04-28T23:14:24.551Z,31.73
2019-04-28T23:16:54.169Z,34.07
2019-04-28T23:19:24.133Z,36.83
2019-04-28T23:21:59.905Z,32.53
2019-04-28T23:24:29.256Z,33.33
2019-04-28T23:26:58.439Z,34.17
2019-04-28T23:29:30.480Z,34.97
2019-04-28T23:31:56.873Z,36.70
2019-04-28T23:34:26.051Z,37.43
2019-04-28T23:36:55.242Z,33.37
2019-04-28T23:39:24.462Z,31.73
2019-04-28T23:42:02.139Z,32.30
2019-04-28T23:44:31.369Z,35.10
2019-04-28T23:47:00.650Z,35.37
2019-04-28T23:49:29.865Z,31.23
2019-04-28T23:52:03.385Z,29.53
2019-04-28T23:54:33.041Z,34.10
2019-04-28T23:57:02.269Z,31.00
2019-04-28T23:59:31.459Z,25.10
